createdAt,value
2019-04-27T00:00:34.562Z,23.2
2019-04-27T00:01:48.976Z,23.9
2019-04-27T00:03:02.931Z,22.4
2019-04-27T00:04:17.267Z,20.3
2019-04-27T00:05:31.344Z,19.9
2019-04-27T00:06:45.544Z,21
2019-04-27T00:07:59.715Z,18.7
2019-04-27T00:09:13.939Z,19.1
2019-04-27T00:10:28.103Z,18.7
2019-04-27T00:11:42.317Z,19.1
2019-04-27T00:14:10.773Z,18.3
2019-04-27T00:15:24.912Z,17.9
2019-04-27T00:16:39.142Z,18.7
2019-04-27T00:17:53.231Z,18.3
2019-04-27T00:19:07.421Z,19
2019-04-27T00:20:21.612Z,20.4
2019-04-27T00:21:35.836Z,24
2019-04-27T00:22:50.093Z,23.3
2019-04-27T00:24:04.254Z,22
2019-04-27T00:25:18.387Z,20.8
2019-04-27T00:26:32.589Z,19.2
2019-04-27T00:27:46.780Z,17.9
2019-04-27T00:29:01.012Z,18.9
2019-04-27T00:30:19.631Z,18.9
2019-04-27T00:31:29.395Z,18.8
2019-04-27T00:32:43.558Z,17.5
2019-04-27T00:33:59.705Z,18.7
2019-04-27T00:35:11.967Z,18.6
2019-04-27T00:36:26.272Z,18.7
2019-04-27T00:37:40.345Z,18.3
2019-04-27T00:38:54.684Z,17.8
2019-04-27T00:40:08.732Z,18.4
2019-04-27T00:41:22.983Z,17.9
2019-04-27T00:42:37.138Z,18.5
2019-04-27T00:43:51.339Z,18
2019-04-27T00:45:05.552Z,18.6
2019-04-27T00:46:19.728Z,17.7
2019-04-27T00:47:33.955Z,17
2019-04-27T00:48:48.279Z,17.3
2019-04-27T00:51:19.186Z,17
2019-04-27T00:52:30.743Z,17.5
2019-04-27T00:53:44.982Z,17
2019-04-27T00:55:03.682Z,16.8
2019-04-27T00:56:13.459Z,17.7
2019-04-27T00:57:27.552Z,17.1
2019-04-27T00:58:41.781Z,16.9
2019-04-27T00:59:55.927Z,16.7
2019-04-27T01:01:10.171Z,17.2
2019-04-27T01:02:24.337Z,18.3
2019-04-27T01:03:38.546Z,19.4
2019-04-27T01:04:52.702Z,18.3
2019-04-27T01:06:06.959Z,18
2019-04-27T01:07:21.150Z,17.5
2019-04-27T01:08:35.457Z,17.6
2019-04-27T01:09:49.504Z,17.3
2019-04-27T01:11:03.890Z,17.9
2019-04-27T01:12:19.850Z,20.2
2019-04-27T01:13:32.258Z,21.1
2019-04-27T01:14:46.293Z,21.7
2019-04-27T01:16:00.522Z,19.1
2019-04-27T01:17:14.709Z,18.7
2019-04-27T01:18:28.902Z,17.5
2019-04-27T01:19:43.618Z,19.2
2019-04-27T01:20:57.334Z,18.9
2019-04-27T01:22:11.585Z,17.8
2019-04-27T01:23:25.768Z,18.7
2019-04-27T01:24:39.956Z,17.7
2019-04-27T01:25:54.646Z,17.1
2019-04-27T01:27:08.264Z,17.5
2019-04-27T01:28:22.576Z,17.3
2019-04-27T01:29:36.661Z,17.3
2019-04-27T01:30:50.870Z,17.8
2019-04-27T01:32:05.062Z,18
2019-04-27T01:33:19.448Z,17.5
2019-04-27T01:34:33.539Z,17.4
2019-04-27T01:35:47.672Z,18.3
2019-04-27T01:37:01.865Z,18.4
2019-04-27T01:38:16.088Z,18.1
2019-04-27T01:39:30.348Z,19.2
2019-04-27T01:40:44.464Z,20.3
2019-04-27T01:41:58.706Z,19.8
2019-04-27T01:43:12.895Z,20
2019-04-27T01:44:27.133Z,21.2
2019-04-27T01:45:41.290Z,20.7
2019-04-27T01:46:55.567Z,21.5
2019-04-27T01:48:09.725Z,19.2
2019-04-27T01:49:23.965Z,18.1
2019-04-27T01:50:38.236Z,18.3
2019-04-27T01:53:06.871Z,18.4
2019-04-27T01:54:20.715Z,18.5
2019-04-27T01:55:34.924Z,18.4
2019-04-27T01:56:49.155Z,19.1
2019-04-27T01:58:03.313Z,18.1
2019-04-27T01:59:17.520Z,18.9
2019-04-27T02:00:31.840Z,18.8
2019-04-27T02:01:46.020Z,17.4
2019-04-27T02:03:00.143Z,18.8
2019-04-27T02:04:14.334Z,18.7
2019-04-27T02:05:28.670Z,18.6
2019-04-27T02:06:42.868Z,17.3
2019-04-27T02:07:56.964Z,17.8
2019-04-27T02:09:11.273Z,18.4
2019-04-27T02:10:25.418Z,18.7
2019-04-27T02:11:39.599Z,17.7
2019-04-27T02:12:53.786Z,17.3
2019-04-27T02:14:08.011Z,17.9
2019-04-27T02:15:22.212Z,17.2
2019-04-27T02:16:36.589Z,17
2019-04-27T02:17:50.645Z,17.3
2019-04-27T02:19:04.893Z,16.6
2019-04-27T02:20:19.061Z,17.2
2019-04-27T02:21:33.274Z,17.5
2019-04-27T02:22:47.606Z,16.9
2019-04-27T02:24:01.699Z,16.3
2019-04-27T02:25:15.993Z,16.7
2019-04-27T02:26:30.120Z,17.4
2019-04-27T02:27:44.319Z,17.2
2019-04-27T02:30:12.840Z,17.2
2019-04-27T02:31:27.050Z,16.1
2019-04-27T02:32:41.175Z,16.9
2019-04-27T02:33:55.389Z,16.6
2019-04-27T02:35:09.635Z,16.9
2019-04-27T02:36:23.849Z,17.3
2019-04-27T02:38:52.267Z,20.9
2019-04-27T02:40:06.566Z,23.9
2019-04-27T02:41:20.693Z,21.7
2019-04-27T02:42:35.017Z,22
2019-04-27T02:43:49.233Z,22.1
2019-04-27T02:45:03.363Z,21.5
2019-04-27T02:46:17.623Z,18.8
2019-04-27T02:47:31.785Z,19.5
2019-04-27T02:48:45.973Z,21
2019-04-27T02:50:00.265Z,19.9
2019-04-27T02:51:14.422Z,20.1
2019-04-27T02:52:28.688Z,20.5
2019-04-27T02:53:42.868Z,18.1
2019-04-27T02:54:57.032Z,14.6
2019-04-27T02:56:11.344Z,15.4
2019-04-27T02:57:25.487Z,15.8
2019-04-27T02:58:39.761Z,14.3
2019-04-27T02:59:53.873Z,13.9
2019-04-27T03:01:08.076Z,13.8
2019-04-27T03:02:22.322Z,12.6
2019-04-27T03:03:36.520Z,12.2
2019-04-27T03:04:50.743Z,11.7
2019-04-27T03:07:19.153Z,14.2
2019-04-27T03:08:33.428Z,13.1
2019-04-27T03:09:47.583Z,11.7
2019-04-27T03:11:01.818Z,11.4
2019-04-27T03:12:16.034Z,13.5
2019-04-27T03:13:30.192Z,13
2019-04-27T03:14:44.499Z,15.1
2019-04-27T03:15:58.627Z,16.2
2019-04-27T03:17:12.820Z,15.9
2019-04-27T03:18:27.022Z,13.8
2019-04-27T03:19:41.211Z,14.4
2019-04-27T03:20:55.455Z,13.1
2019-04-27T03:22:09.676Z,13.4
2019-04-27T03:23:23.901Z,13.3
2019-04-27T03:24:38.092Z,13.9
2019-04-27T03:25:58.445Z,12.5
2019-04-27T03:27:06.484Z,13.2
2019-04-27T03:28:20.700Z,11.3
2019-04-27T03:29:34.945Z,12.1
2019-04-27T03:30:49.198Z,11.4
2019-04-27T03:32:03.327Z,10.7
2019-04-27T03:33:17.524Z,9.9
2019-04-27T03:34:32.129Z,9.5
2019-04-27T03:35:45.903Z,9.9
2019-04-27T03:37:00.120Z,9.9
2019-04-27T03:38:14.318Z,10.5
2019-04-27T03:39:28.594Z,11.8
2019-04-27T03:40:42.746Z,13.3
2019-04-27T03:41:56.964Z,9.5
2019-04-27T03:43:11.164Z,10.4
2019-04-27T03:44:25.371Z,10.5
2019-04-27T03:45:39.608Z,9.4
2019-04-27T03:46:53.794Z,10.2
2019-04-27T03:48:08.073Z,9.3
2019-04-27T03:49:22.189Z,8.3
2019-04-27T03:50:36.659Z,8.5
2019-04-27T03:51:50.661Z,9.3
2019-04-27T03:53:04.846Z,8.6
2019-04-27T03:54:19.042Z,8.4
2019-04-27T03:55:33.205Z,8
2019-04-27T03:56:47.533Z,8.1
2019-04-27T03:58:01.611Z,8
2019-04-27T03:59:15.836Z,9.5
2019-04-27T04:00:30.055Z,8.6
2019-04-27T04:01:44.338Z,8.9
2019-04-27T04:02:58.617Z,8.3
2019-04-27T04:04:12.665Z,8.5
2019-04-27T04:05:27.015Z,7.4
2019-04-27T04:06:41.128Z,7.4
2019-04-27T04:07:55.437Z,7.2
2019-04-27T04:09:09.576Z,7.2
2019-04-27T04:10:23.730Z,7
2019-04-27T04:11:37.972Z,6.7
2019-04-27T04:12:52.155Z,6.8
2019-04-27T04:14:06.374Z,6.6
2019-04-27T04:15:20.572Z,6.2
2019-04-27T04:16:34.749Z,6.4
2019-04-27T04:17:48.969Z,6.3
2019-04-27T04:19:03.249Z,6.5
2019-04-27T04:20:17.465Z,5.8
2019-04-27T04:21:31.577Z,6.3
2019-04-27T04:22:45.769Z,6.2
2019-04-27T04:23:59.988Z,5.8
2019-04-27T04:25:14.191Z,6.1
2019-04-27T04:26:29.872Z,5.9
2019-04-27T04:27:42.728Z,6.1
2019-04-27T04:28:56.955Z,5.5
2019-04-27T04:30:11.191Z,5.6
2019-04-27T04:31:25.359Z,6.1
2019-04-27T04:33:53.618Z,5.7
2019-04-27T04:35:08.103Z,6.1
2019-04-27T04:36:22.017Z,5.9
2019-04-27T04:37:36.230Z,5.9
2019-04-27T04:38:50.610Z,5.9
2019-04-27T04:40:04.600Z,5.3
2019-04-27T04:41:18.822Z,5.3
2019-04-27T04:42:33.003Z,5.1
2019-04-27T04:43:47.185Z,5.3
2019-04-27T04:45:01.424Z,5
2019-04-27T04:46:15.667Z,5
2019-04-27T04:47:29.855Z,5.2
2019-04-27T04:48:43.957Z,4.9
2019-04-27T04:49:58.708Z,5.1
2019-04-27T04:51:12.357Z,4.8
2019-04-27T04:52:26.667Z,5.4
2019-04-27T04:53:44.168Z,4.9
2019-04-27T04:54:54.972Z,4.5
2019-04-27T04:56:09.265Z,4.6
2019-04-27T04:57:23.489Z,5.2
2019-04-27T04:58:37.444Z,4.7
2019-04-27T04:59:51.672Z,4.7
2019-04-27T05:01:05.900Z,4.3
2019-04-27T05:02:20.011Z,4.4
2019-04-27T05:03:34.225Z,4.2
2019-04-27T05:04:48.405Z,4
2019-04-27T05:06:02.545Z,4
2019-04-27T05:07:16.721Z,4
2019-04-27T05:08:30.994Z,4.1
2019-04-27T05:09:45.104Z,3.8
2019-04-27T05:11:05.301Z,3.8
2019-04-27T05:12:13.434Z,3.8
2019-04-27T05:13:27.596Z,3.6
2019-04-27T05:14:44.033Z,3.8
2019-04-27T05:17:10.093Z,3.6
2019-04-27T05:18:24.281Z,3.4
2019-04-27T05:19:38.468Z,3
2019-04-27T05:20:52.581Z,2.9
2019-04-27T05:22:06.847Z,3
2019-04-27T05:23:20.909Z,3.2
2019-04-27T05:24:35.112Z,2.8
2019-04-27T05:25:49.284Z,3
2019-04-27T05:27:03.418Z,3
2019-04-27T05:28:17.717Z,2.9
2019-04-27T05:29:31.656Z,3.2
2019-04-27T05:30:45.868Z,2.9
2019-04-27T05:31:59.963Z,3.1
2019-04-27T05:33:14.075Z,3
2019-04-27T05:34:28.227Z,2.8
2019-04-27T05:35:42.353Z,3.3
2019-04-27T05:36:56.485Z,2.8
2019-04-27T05:38:10.643Z,3.1
2019-04-27T05:39:24.993Z,3
2019-04-27T05:40:38.925Z,3
2019-04-27T05:41:53.059Z,3.1
2019-04-27T05:43:07.281Z,2.9
2019-04-27T05:44:21.409Z,2.9
2019-04-27T05:45:35.453Z,2.8
2019-04-27T05:46:49.624Z,2.6
2019-04-27T05:48:03.803Z,2.9
2019-04-27T05:49:17.903Z,2.9
2019-04-27T05:50:32.093Z,2.7
2019-04-27T05:51:46.136Z,3.3
2019-04-27T05:53:00.254Z,2.8
2019-04-27T05:54:14.371Z,2.8
2019-04-27T05:55:28.829Z,3.2
2019-04-27T05:56:42.727Z,3.2
2019-04-27T05:57:56.754Z,3
2019-04-27T05:59:10.871Z,2.8
2019-04-27T06:00:25.084Z,2.7
2019-04-27T06:01:39.201Z,2.8
2019-04-27T06:02:53.276Z,2.7
2019-04-27T06:04:07.380Z,2.7
2019-04-27T06:05:21.531Z,2.8
2019-04-27T06:06:35.656Z,2.9
2019-04-27T06:07:49.781Z,2.7
2019-04-27T06:09:03.874Z,2.8
2019-04-27T06:10:18.042Z,3.1
2019-04-27T06:11:32.148Z,2.7
2019-04-27T06:12:46.363Z,2.9
2019-04-27T06:14:00.472Z,2.4
2019-04-27T06:15:19.990Z,2.8
2019-04-27T06:16:28.658Z,2.9
2019-04-27T06:17:42.823Z,2.9
2019-04-27T06:18:56.992Z,3
2019-04-27T06:20:10.980Z,2.5
2019-04-27T06:21:25.091Z,2.5
2019-04-27T06:22:39.208Z,2.7
2019-04-27T06:23:53.311Z,2.4
2019-04-27T06:25:07.465Z,2.6
2019-04-27T06:26:21.729Z,2.3
2019-04-27T06:27:35.612Z,2.6
2019-04-27T06:30:03.869Z,2.4
2019-04-27T06:31:17.952Z,2.5
2019-04-27T06:32:32.099Z,2.4
2019-04-27T06:33:46.181Z,2.9
2019-04-27T06:35:00.340Z,2.6
2019-04-27T06:36:14.330Z,2
2019-04-27T06:37:28.465Z,2.4
2019-04-27T06:38:42.556Z,2.7
2019-04-27T06:39:56.673Z,2.7
2019-04-27T06:41:10.824Z,2.6
2019-04-27T06:42:25.091Z,2.7
2019-04-27T06:43:39.028Z,2.7
2019-04-27T06:44:53.146Z,2.9
2019-04-27T06:46:07.251Z,2.6
2019-04-27T06:47:21.467Z,2.7
2019-04-27T06:48:35.491Z,2.6
2019-04-27T06:49:50.065Z,2.8
2019-04-27T06:51:04.225Z,2.6
2019-04-27T06:52:17.872Z,2.6
2019-04-27T06:53:32.120Z,2.8
2019-04-27T06:54:46.148Z,2.5
2019-04-27T06:56:00.248Z,2.6
2019-04-27T06:57:14.341Z,2.7
2019-04-27T06:58:28.470Z,2.7
2019-04-27T06:59:42.583Z,2.8
2019-04-27T07:00:56.704Z,2.6
2019-04-27T07:02:11.579Z,2.5
2019-04-27T07:03:25.007Z,2.5
2019-04-27T07:04:39.110Z,2.5
2019-04-27T07:05:53.222Z,2.6
2019-04-27T07:07:07.602Z,2.5
2019-04-27T07:08:21.731Z,2.8
2019-04-27T07:09:35.598Z,2.7
2019-04-27T07:10:49.680Z,3
2019-04-27T07:12:03.820Z,2.7
2019-04-27T07:13:18.054Z,2.7
2019-04-27T07:14:32.131Z,3.1
2019-04-27T07:15:46.279Z,3.3
2019-04-27T07:17:00.341Z,3.1
2019-04-27T07:19:28.601Z,3.1
2019-04-27T07:20:42.695Z,2.9
2019-04-27T07:21:56.820Z,3.1
2019-04-27T07:23:11.041Z,3
2019-04-27T07:24:25.089Z,3.4
2019-04-27T07:25:39.411Z,3.2
2019-04-27T07:28:08.828Z,3
2019-04-27T07:29:21.676Z,3.2
2019-04-27T07:30:35.760Z,3.2
2019-04-27T07:31:49.861Z,2.9
2019-04-27T07:33:03.990Z,2.9
2019-04-27T07:34:18.145Z,2.9
2019-04-27T07:35:32.279Z,3.1
2019-04-27T07:36:46.381Z,2.8
2019-04-27T07:38:00.554Z,3.1
2019-04-27T07:39:14.638Z,3.3
2019-04-27T07:40:28.955Z,2.7
2019-04-27T07:41:43.026Z,2.7
2019-04-27T07:42:57.049Z,2.9
2019-04-27T07:44:11.193Z,3
2019-04-27T07:45:25.323Z,3
2019-04-27T07:46:39.560Z,3
2019-04-27T07:47:53.616Z,2.9
2019-04-27T07:49:07.825Z,3
2019-04-27T07:50:21.854Z,3.2
2019-04-27T07:51:36.689Z,2.9
2019-04-27T07:52:50.229Z,3.5
2019-04-27T07:54:04.296Z,3.3
2019-04-27T07:55:18.421Z,3.2
2019-04-27T07:56:32.606Z,3.4
2019-04-27T07:57:46.745Z,3.1
2019-04-27T07:59:00.823Z,3.4
2019-04-27T08:00:14.947Z,3.6
2019-04-27T08:01:29.107Z,3.3
2019-04-27T08:02:43.215Z,3.6
2019-04-27T08:03:57.396Z,3.5
2019-04-27T08:05:11.499Z,3.8
2019-04-27T08:06:25.678Z,4.2
2019-04-27T08:07:39.792Z,3.8
2019-04-27T08:08:53.927Z,4.3
2019-04-27T08:10:08.075Z,4.5
2019-04-27T08:11:22.340Z,4.5
2019-04-27T08:12:36.377Z,4.3
2019-04-27T08:13:50.619Z,4.4
2019-04-27T08:15:04.798Z,5
2019-04-27T08:16:18.921Z,4.9
2019-04-27T08:17:32.946Z,5.5
2019-04-27T08:18:47.165Z,5
2019-04-27T08:20:01.214Z,4.9
2019-04-27T08:21:15.447Z,4.7
2019-04-27T08:22:29.529Z,5.1
2019-04-27T08:23:43.664Z,5.4
2019-04-27T08:24:57.877Z,6
2019-04-27T08:27:26.139Z,6.2
2019-04-27T08:28:44.193Z,6.8
2019-04-27T08:29:57.915Z,7
2019-04-27T08:31:08.579Z,6.5
2019-04-27T08:32:23.013Z,6.2
2019-04-27T08:33:39.101Z,6.2
2019-04-27T08:34:51.043Z,6.4
2019-04-27T08:36:05.294Z,8.4
2019-04-27T08:37:19.352Z,6.9
2019-04-27T08:38:33.537Z,6.8
2019-04-27T08:39:49.358Z,7
2019-04-27T08:41:01.826Z,7.4
2019-04-27T08:42:15.982Z,6.1
2019-04-27T08:43:30.131Z,7
2019-04-27T08:44:44.288Z,8.5
2019-04-27T08:45:58.431Z,8.1
2019-04-27T08:47:12.579Z,8.4
2019-04-27T08:48:26.875Z,9
2019-04-27T08:49:40.855Z,8.7
2019-04-27T08:50:55.015Z,7.5
2019-04-27T08:52:09.224Z,6.7
2019-04-27T08:53:23.247Z,7.5
2019-04-27T08:54:37.412Z,7.7
2019-04-27T08:55:51.710Z,7.8
2019-04-27T08:57:05.677Z,7.7
2019-04-27T08:58:19.813Z,7.8
2019-04-27T08:59:33.948Z,7.8
2019-04-27T09:00:48.199Z,7.5
2019-04-27T09:02:02.257Z,8.2
2019-04-27T09:03:16.471Z,7.2
2019-04-27T09:04:30.573Z,7
2019-04-27T09:05:44.669Z,8
2019-04-27T09:06:58.935Z,7.8
2019-04-27T09:08:12.953Z,8.5
2019-04-27T09:09:27.187Z,8.2
2019-04-27T09:10:41.266Z,8.7
2019-04-27T09:11:55.395Z,8.2
2019-04-27T09:13:09.577Z,9
2019-04-27T09:14:23.686Z,8.1
2019-04-27T09:15:37.891Z,8.5
2019-04-27T09:16:52.009Z,8.4
2019-04-27T09:18:06.207Z,8.5
2019-04-27T09:19:20.437Z,7.5
2019-04-27T09:20:34.399Z,8.3
2019-04-27T09:21:48.637Z,8.6
2019-04-27T09:23:02.646Z,8.6
2019-04-27T09:24:16.858Z,8.1
2019-04-27T09:25:31.043Z,8.8
2019-04-27T09:26:45.185Z,9
2019-04-27T09:27:59.292Z,9.5
2019-04-27T09:29:13.322Z,8.3
2019-04-27T09:30:27.509Z,8.6
2019-04-27T09:31:41.623Z,9.2
2019-04-27T09:32:55.773Z,8.5
2019-04-27T09:34:09.921Z,8
2019-04-27T09:35:24.007Z,8.5
2019-04-27T09:36:38.149Z,8.2
2019-04-27T09:37:52.290Z,7.6
2019-04-27T09:39:06.447Z,8.3
2019-04-27T09:40:20.561Z,8.7
2019-04-27T09:41:34.721Z,8.7
2019-04-27T09:42:48.812Z,8.2
2019-04-27T09:44:02.922Z,8
2019-04-27T09:45:17.035Z,8.1
2019-04-27T09:46:31.183Z,8.3
2019-04-27T09:47:45.369Z,7.8
2019-04-27T09:48:59.503Z,8
2019-04-27T09:50:13.685Z,8.7
2019-04-27T09:51:27.668Z,7.2
2019-04-27T09:52:41.842Z,8.6
2019-04-27T09:55:10.093Z,8
2019-04-27T09:56:25.541Z,8.4
2019-04-27T09:57:38.314Z,8.3
2019-04-27T09:58:52.465Z,7.4
2019-04-27T10:00:06.710Z,6.6
2019-04-27T10:01:20.731Z,7.3
2019-04-27T10:02:34.900Z,8.5
2019-04-27T10:03:48.978Z,7.7
2019-04-27T10:05:03.089Z,8.8
2019-04-27T10:06:17.197Z,7.9
2019-04-27T10:07:31.453Z,9.1
2019-04-27T10:08:45.480Z,9.3
2019-04-27T10:09:59.638Z,10.1
2019-04-27T10:11:13.872Z,9.4
2019-04-27T10:12:27.925Z,9.5
2019-04-27T10:13:42.080Z,10.3
2019-04-27T10:14:56.197Z,9
2019-04-27T10:16:10.362Z,8.4
2019-04-27T10:17:24.494Z,8.3
2019-04-27T10:18:38.665Z,10
2019-04-27T10:19:52.811Z,10.1
2019-04-27T10:21:06.979Z,10.6
2019-04-27T10:22:21.088Z,10.1
2019-04-27T10:23:35.393Z,9.3
2019-04-27T10:24:49.357Z,9.2
2019-04-27T10:26:03.588Z,9.2
2019-04-27T10:27:18.066Z,8
2019-04-27T10:28:31.788Z,8.5
2019-04-27T10:29:45.952Z,9
2019-04-27T10:31:00.102Z,8.1
2019-04-27T10:32:14.210Z,8.7
2019-04-27T10:33:28.422Z,9.2
2019-04-27T10:34:42.472Z,8.6
2019-04-27T10:35:56.637Z,9.2
2019-04-27T10:37:10.751Z,9
2019-04-27T10:38:24.905Z,9.2
2019-04-27T10:39:39.052Z,8.9
2019-04-27T10:40:53.441Z,9.3
2019-04-27T10:42:07.418Z,9.3
2019-04-27T10:43:21.528Z,8.5
2019-04-27T10:44:35.670Z,9.7
2019-04-27T10:45:49.753Z,10.3
2019-04-27T10:47:03.970Z,10.1
2019-04-27T10:48:18.031Z,9.3
2019-04-27T10:49:32.175Z,7.8
2019-04-27T10:50:46.326Z,9.5
2019-04-27T10:52:00.473Z,9.2
2019-04-27T10:53:14.736Z,8.6
2019-04-27T10:54:28.775Z,10.1
2019-04-27T10:55:42.884Z,8.2
2019-04-27T10:56:56.994Z,8.7
2019-04-27T10:58:11.214Z,8.6
2019-04-27T10:59:25.248Z,8.2
2019-04-27T11:00:39.520Z,10
2019-04-27T11:01:54.053Z,9.4
2019-04-27T11:03:07.680Z,9.6
2019-04-27T11:04:22.198Z,9.5
2019-04-27T11:05:35.951Z,9.9
2019-04-27T11:06:50.090Z,10.7
2019-04-27T11:08:04.350Z,11.7
2019-04-27T11:09:18.542Z,10.5
2019-04-27T11:10:32.861Z,10.9
2019-04-27T11:11:46.681Z,10.9
2019-04-27T11:14:15.081Z,10.5
2019-04-27T11:15:29.119Z,9.7
2019-04-27T11:16:43.280Z,9.2
2019-04-27T11:17:57.419Z,10.7
2019-04-27T11:19:11.650Z,10
2019-04-27T11:20:25.814Z,6.2
2019-04-27T11:21:39.878Z,5.2
2019-04-27T11:22:54.095Z,5.7
2019-04-27T11:24:08.176Z,3.9
2019-04-27T11:25:22.467Z,4.7
2019-04-27T11:26:36.550Z,4.7
2019-04-27T11:27:50.689Z,4.5
2019-04-27T11:29:04.815Z,4.8
2019-04-27T11:30:18.926Z,4.8
2019-04-27T11:31:33.234Z,5.9
2019-04-27T11:32:49.648Z,5.4
2019-04-27T11:34:03.347Z,6
2019-04-27T11:35:15.552Z,6.1
2019-04-27T11:36:29.798Z,6.3
2019-04-27T11:37:43.916Z,5.8
2019-04-27T11:38:58.096Z,5.5
2019-04-27T11:40:12.180Z,5.3
2019-04-27T11:41:26.320Z,6.3
2019-04-27T11:42:41.289Z,5.3
2019-04-27T11:43:54.670Z,5.1
2019-04-27T11:45:08.742Z,6.5
2019-04-27T11:46:22.913Z,5.7
2019-04-27T11:47:37.023Z,6.3
2019-04-27T11:48:51.152Z,6.2
2019-04-27T11:50:05.382Z,5.7
2019-04-27T11:51:19.434Z,4.7
2019-04-27T11:52:33.570Z,4.9
2019-04-27T11:53:47.724Z,4.8
2019-04-27T11:55:01.881Z,5
2019-04-27T11:57:30.223Z,5.4
2019-04-27T11:58:44.406Z,5.6
2019-04-27T11:59:58.468Z,6.5
2019-04-27T12:01:12.640Z,5.4
2019-04-27T12:02:26.779Z,6
2019-04-27T12:03:41.111Z,5.8
2019-04-27T12:04:55.108Z,6
2019-04-27T12:06:09.234Z,5.9
2019-04-27T12:07:23.396Z,6.5
2019-04-27T12:08:37.657Z,4.9
2019-04-27T12:09:51.764Z,6.4
2019-04-27T12:11:05.894Z,4.6
2019-04-27T12:12:20.089Z,3.7
2019-04-27T12:13:34.655Z,3.4
2019-04-27T12:14:48.358Z,2.8
2019-04-27T12:16:02.639Z,3
2019-04-27T12:17:16.669Z,3
2019-04-27T12:18:30.878Z,2.2
2019-04-27T12:19:45.016Z,2.4
2019-04-27T12:20:59.241Z,2.6
2019-04-27T12:22:13.484Z,2.3
2019-04-27T12:23:27.482Z,2.1
2019-04-27T12:24:41.619Z,2.7
2019-04-27T12:25:55.860Z,2.6
2019-04-27T12:27:10.005Z,2.8
2019-04-27T12:28:24.074Z,2.5
2019-04-27T12:29:38.257Z,2.7
2019-04-27T12:30:52.414Z,2.4
2019-04-27T12:32:06.623Z,2.6
2019-04-27T12:34:35.153Z,2.5
2019-04-27T12:35:48.981Z,2.4
2019-04-27T12:37:03.191Z,2.6
2019-04-27T12:38:19.483Z,2.4
2019-04-27T12:39:31.424Z,2.9
2019-04-27T12:40:45.610Z,2.9
2019-04-27T12:41:59.862Z,2.5
2019-04-27T12:43:13.995Z,2.8
2019-04-27T12:44:28.060Z,3.3
2019-04-27T12:45:42.348Z,2.6
2019-04-27T12:48:10.612Z,3.1
2019-04-27T12:49:24.712Z,3
2019-04-27T12:50:38.853Z,3
2019-04-27T12:51:53.072Z,2.7
2019-04-27T12:53:07.171Z,2.8
2019-04-27T12:54:21.337Z,2.8
2019-04-27T12:55:35.582Z,2.7
2019-04-27T12:56:49.606Z,2.9
2019-04-27T12:58:03.741Z,2.9
2019-04-27T12:59:17.886Z,3.3
2019-04-27T13:00:32.139Z,3.2
2019-04-27T13:01:46.168Z,3.3
2019-04-27T13:03:04.529Z,2.9
2019-04-27T13:04:14.442Z,3.1
2019-04-27T13:05:28.578Z,3.1
2019-04-27T13:06:42.739Z,2.9
2019-04-27T13:07:56.831Z,2.6
2019-04-27T13:09:10.996Z,3.4
2019-04-27T13:10:25.089Z,3.3
2019-04-27T13:11:39.226Z,3.5
2019-04-27T13:12:53.364Z,3.7
2019-04-27T13:14:07.514Z,3
2019-04-27T13:15:21.643Z,3.5
2019-04-27T13:16:35.778Z,3
2019-04-27T13:17:49.912Z,3.3
2019-04-27T13:19:04.110Z,3.1
2019-04-27T13:20:18.373Z,3
2019-04-27T13:21:32.386Z,3.1
2019-04-27T13:22:46.532Z,3.6
2019-04-27T13:25:14.817Z,3.1
2019-04-27T13:26:29.032Z,3
2019-04-27T13:27:43.854Z,3
2019-04-27T13:28:57.275Z,3.2
2019-04-27T13:30:11.375Z,3.2
2019-04-27T13:31:25.508Z,3.1
2019-04-27T13:32:39.723Z,3.5
2019-04-27T13:33:53.883Z,3.3
2019-04-27T13:35:08.047Z,3.3
2019-04-27T13:36:22.064Z,3.5
2019-04-27T13:37:36.448Z,3.4
2019-04-27T13:38:50.400Z,3.1
2019-04-27T13:40:04.480Z,3.3
2019-04-27T13:41:18.722Z,2.8
2019-04-27T13:42:32.752Z,3.5
2019-04-27T13:43:46.895Z,3
2019-04-27T13:45:01.056Z,2.8
2019-04-27T13:46:20.377Z,3
2019-04-27T13:47:29.304Z,2.9
2019-04-27T13:48:43.564Z,3.1
2019-04-27T13:49:57.566Z,2.5
2019-04-27T13:51:11.678Z,2.9
2019-04-27T13:52:25.810Z,2.8
2019-04-27T13:53:40.095Z,3.1
2019-04-27T13:54:54.238Z,2.9
2019-04-27T13:56:08.568Z,3
2019-04-27T13:57:22.284Z,3.1
2019-04-27T13:58:36.476Z,3
2019-04-27T13:59:50.633Z,3
2019-04-27T14:01:04.694Z,3.4
2019-04-27T14:02:18.840Z,3
2019-04-27T14:03:32.942Z,2.8
2019-04-27T14:04:47.096Z,2.9
2019-04-27T14:06:01.119Z,2.9
2019-04-27T14:07:15.319Z,3
2019-04-27T14:08:29.321Z,3.2
2019-04-27T14:09:43.435Z,3.2
2019-04-27T14:10:57.559Z,3
2019-04-27T14:12:11.669Z,3
2019-04-27T14:13:25.787Z,3.3
2019-04-27T14:14:40.331Z,3.5
2019-04-27T14:15:54.009Z,3.6
2019-04-27T14:17:08.114Z,3.8
2019-04-27T14:18:22.250Z,3.7
2019-04-27T14:19:36.365Z,3.5
2019-04-27T14:20:50.494Z,4
2019-04-27T14:22:04.651Z,3.8
2019-04-27T14:23:18.683Z,4.6
2019-04-27T14:24:32.777Z,4.5
2019-04-27T14:25:46.960Z,4.5
2019-04-27T14:27:01.020Z,4.7
2019-04-27T14:28:15.150Z,5.4
2019-04-27T14:29:29.292Z,4.8
2019-04-27T14:30:43.422Z,5
2019-04-27T14:31:57.526Z,5.4
2019-04-27T14:33:11.620Z,5.1
2019-04-27T14:34:25.742Z,5.2
2019-04-27T14:35:39.861Z,5.4
2019-04-27T14:36:54.007Z,5.1
2019-04-27T14:38:08.202Z,4.4
2019-04-27T14:39:22.201Z,5
2019-04-27T14:40:36.338Z,5.1
2019-04-27T14:41:50.477Z,4.9
2019-04-27T14:43:04.609Z,5.1
2019-04-27T14:44:20.380Z,5.7
2019-04-27T14:45:33.420Z,5.8
2019-04-27T14:46:47.026Z,5.4
2019-04-27T14:48:01.062Z,5.7
2019-04-27T14:49:18.686Z,5.3
2019-04-27T14:50:31.898Z,6.4
2019-04-27T14:51:43.397Z,5.8
2019-04-27T14:52:57.507Z,5.6
2019-04-27T14:54:11.798Z,5.2
2019-04-27T14:55:26.024Z,5.1
2019-04-27T14:56:39.851Z,5.4
2019-04-27T14:57:54.045Z,5.3
2019-04-27T14:59:08.081Z,5.2
2019-04-27T15:00:22.212Z,5
2019-04-27T15:01:36.475Z,4.6
2019-04-27T15:02:50.637Z,4.5
2019-04-27T15:04:04.582Z,5.3
2019-04-27T15:05:18.651Z,4.6
2019-04-27T15:06:32.792Z,4.4
2019-04-27T15:07:46.876Z,4.1
2019-04-27T15:09:01.289Z,4.5
2019-04-27T15:10:15.101Z,4
2019-04-27T15:11:29.221Z,3.9
2019-04-27T15:12:43.277Z,4.1
2019-04-27T15:13:57.400Z,3.7
2019-04-27T15:15:11.477Z,3.9
2019-04-27T15:16:25.677Z,4
2019-04-27T15:17:39.839Z,4.4
2019-04-27T15:18:53.775Z,4
2019-04-27T15:20:07.922Z,3.9
2019-04-27T15:21:22.032Z,3.6
2019-04-27T15:22:36.088Z,4.1
2019-04-27T15:23:50.285Z,3.9
2019-04-27T15:25:04.304Z,3.8
2019-04-27T15:26:18.529Z,3.7
2019-04-27T15:27:32.612Z,3.3
2019-04-27T15:28:46.578Z,3.3
2019-04-27T15:30:00.632Z,3.2
2019-04-27T15:31:14.741Z,3.8
2019-04-27T15:32:29.012Z,3.8
2019-04-27T15:33:42.937Z,4.1
2019-04-27T15:34:57.042Z,3.7
2019-04-27T15:36:11.153Z,4.3
2019-04-27T15:37:25.236Z,4.4
2019-04-27T15:38:39.416Z,4
2019-04-27T15:39:53.482Z,4.6
2019-04-27T15:41:07.611Z,4.3
2019-04-27T15:42:21.736Z,4.6
2019-04-27T15:43:37.521Z,4.4
2019-04-27T15:46:04.147Z,4.3
2019-04-27T15:47:18.280Z,3.1
2019-04-27T15:48:32.449Z,2.8
2019-04-27T15:49:46.573Z,2.3
2019-04-27T15:51:00.869Z,2.4
2019-04-27T15:52:14.972Z,2.1
2019-04-27T15:53:29.071Z,2
2019-04-27T15:54:43.238Z,2.7
2019-04-27T15:56:00.334Z,2.7
2019-04-27T15:57:11.604Z,3.1
2019-04-27T15:58:25.767Z,3.4
2019-04-27T15:59:39.977Z,3.2
2019-04-27T16:00:54.177Z,4
2019-04-27T16:02:08.295Z,3.6
2019-04-27T16:03:22.493Z,4.7
2019-04-27T16:04:36.652Z,5.1
2019-04-27T16:05:50.906Z,4.3
2019-04-27T16:07:05.047Z,4.2
2019-04-27T16:08:19.240Z,5.2
2019-04-27T16:09:33.449Z,4.4
2019-04-27T16:10:47.577Z,5.2
2019-04-27T16:12:01.813Z,4.9
2019-04-27T16:13:15.931Z,4.7
2019-04-27T16:14:30.116Z,5.6
2019-04-27T16:15:49.695Z,5.1
2019-04-27T16:16:58.537Z,4.8
2019-04-27T16:18:12.669Z,6
2019-04-27T16:19:26.865Z,5.4
2019-04-27T16:20:41.146Z,4.6
2019-04-27T16:21:55.231Z,4.3
2019-04-27T16:23:09.416Z,5
2019-04-27T16:24:23.600Z,4.6
2019-04-27T16:25:37.860Z,4.3
2019-04-27T16:26:52.101Z,5
2019-04-27T16:28:06.170Z,5.3
2019-04-27T16:29:20.510Z,5.1
2019-04-27T16:31:48.738Z,4.8
2019-04-27T16:33:02.926Z,5.6
2019-04-27T16:34:17.233Z,5.9
2019-04-27T16:35:31.369Z,5.5
2019-04-27T16:36:45.587Z,5.3
2019-04-27T16:37:59.704Z,6.3
2019-04-27T16:39:13.869Z,5.6
2019-04-27T16:40:28.108Z,5.6
2019-04-27T16:41:42.394Z,5.5
2019-04-27T16:42:56.421Z,6.2
2019-04-27T16:44:10.658Z,5.5
2019-04-27T16:45:24.801Z,6.5
2019-04-27T16:46:38.981Z,6.3
2019-04-27T16:47:53.263Z,5.9
2019-04-27T16:49:07.374Z,7.1
2019-04-27T16:50:21.736Z,5.6
2019-04-27T16:51:35.810Z,5.7
2019-04-27T16:52:49.970Z,6
2019-04-27T16:54:04.173Z,5.9
2019-04-27T16:55:18.311Z,5.1
2019-04-27T16:56:32.568Z,5.2
2019-04-27T16:57:50.417Z,5.4
2019-04-27T16:59:04.430Z,4.9
2019-04-27T17:00:15.046Z,6.5
2019-04-27T17:01:29.340Z,6.5
2019-04-27T17:02:43.398Z,6.2
2019-04-27T17:03:57.632Z,6.5
2019-04-27T17:05:11.798Z,5.6
2019-04-27T17:06:27.151Z,6.4
2019-04-27T17:07:40.211Z,5.2
2019-04-27T17:08:54.403Z,5.3
2019-04-27T17:10:08.612Z,6.1
2019-04-27T17:11:22.733Z,5.5
2019-04-27T17:12:36.873Z,4.9
2019-04-27T17:13:51.128Z,6.1
2019-04-27T17:15:05.329Z,5.9
2019-04-27T17:16:20.373Z,5.6
2019-04-27T17:17:33.595Z,5.5
2019-04-27T17:18:47.814Z,6.5
2019-04-27T17:20:02.297Z,7
2019-04-27T17:21:16.198Z,5.2
2019-04-27T17:22:30.353Z,6.2
2019-04-27T17:23:44.542Z,5.7
2019-04-27T17:24:58.743Z,6.3
2019-04-27T17:26:12.940Z,7.8